Airfield :
LOGIN :

Register | Disclaimer

   EN    FR    IT 

 










Legend :    VFR   Marginal VFR   IFR   Intensive IFR   Very Intensive IFR
Visi :
Ceiling :
>= 8 km
>= 3000ft
5 to 8 km
1000 to 3000 ft
1500m to 5 km
500 to 1000 ft
800 to 1500m
200 to 500 ft
< 800m
< 200 ft
Symbols :   Thunderstorms  Fog  Heavy snow  Heavy precipitations  Wind > 20 kt
SIGMETs :     Misc.  Thunderstorms  Icing  Turbulence  Mountain Waves  Volcanic Ashes






- Airport Elevation : 19 ft
- IATA code : LCY


EGLC - London City

CURRENT METAR :
  • 211020Z AUTO 32007KT 270V010 9999 FEW030 BKN043 20/13 Q1010

EXPIRED METARs :
  • 210950Z AUTO 35010KT 9999 SCT024 SCT028 OVC044 20/13 Q1010
  • 210920Z AUTO 31008KT 250V360 9999 SCT023 OVC038 19/14 Q1010
  • 210850Z AUTO 31007KT 280V350 9999 FEW021 BKN036 OVC048 19/14 Q1010
  • 210820Z AUTO 30008KT 260V340 9999 FEW025 BKN033 19/14 Q1009
  • 210750Z AUTO 31009KT 9999 SCT017 BKN024 OVC030 19/15 Q1009
  • 210720Z AUTO 32008KT 280V010 9999 SCT013 BKN018 OVC033 19/15 Q1009
  • 210650Z AUTO 31006KT 9999 BKN013 OVC036 19/16 Q1008
  • 210620Z AUTO 30007KT 270V330 9999 BKN013 19/16 Q1008
  • 210550Z AUTO 27008KT 9999 BKN014 19/16 Q1008

TAF TAF EGLC
Valid from the 21 at 09:00 until the 21 at 18:00 UTC


210802Z 2109/2118 30007KT 9999 SCT020
ATIS : +44 20 7646 0224



MET'MAP, your aeronautical weather chart ! - Copyright ORBIFLY December 2007 - Disclaimer

ORBIFLY MET'MAP TEAM :

Programming & Development : Alexandra Zaïnal
Original concept : Baudouin d'Aumeries
Technical & hardware support : Manuel Goepfert
Assistance : Marc-Olivier Méhu




SOURCES & CREDITS :

   NOAA